MiSS Sydney — V7PG2 — position and weather

sailwx.info

Track history (hours):
 
Tides and Currents Weather Stations Pressure Air Temp Water Temp Dewpoint Dewpoint Depression Visibility Wind Speed Wind Dir Waves Ship Positions

MiSS Sydney

Last reported at 2018-Jan-18 17:25 UTC. Time now 2018-Jan-18 17:57 UTC.
Position N 26°08' W 080°07'.

Length 39 m; draft 2.1 m.

Type: . MMSI: 538070521.

Date/timePositionNaut miles runAvg speedWind from/ knotsBaromVisibWave heightAir tempDewpointWater temp
2018-Jan-18 17:25N 26°08' W 080°07'0 0.0
2018-Jan-18 16:55N 26°08' W 080°07'0 0.0
2018-Jan-18 16:25N 26°08' W 080°07'0 0.0
2018-Jan-18 15:55N 26°08' W 080°07'0 0.1
2018-Jan-18 15:30N 26°08' W 080°07'1 2.4
2018-Jan-18 15:00N 26°07' W 080°08'1 2.7
2018-Jan-18 14:30N 26°07' W 080°09'1 2.4
2018-Jan-18 13:59N 26°06' W 080°10'0 0.0
2018-Jan-18 13:29N 26°06' W 080°10'0 0.0
2018-Jan-18 12:59N 26°06' W 080°10'0 0.0
2018-Jan-18 12:29N 26°06' W 080°10'0 0.0
2018-Jan-18 11:59N 26°06' W 080°10'0 0.0
2018-Jan-18 11:29N 26°06' W 080°10'0 0.0
2018-Jan-18 10:59N 26°06' W 080°10'0 0.0
2018-Jan-18 10:20N 26°06' W 080°10'0 0.0
2018-Jan-18 09:50N 26°06' W 080°10'0 0.0
2018-Jan-18 09:20N 26°06' W 080°10'0 0.0
2018-Jan-18 08:53N 26°06' W 080°10'0 0.0
2018-Jan-18 08:23N 26°06' W 080°10'0 0.0
2018-Jan-18 07:53N 26°06' W 080°10'0 0.0
2018-Jan-18 07:23N 26°06' W 080°10'0 0.0
2018-Jan-18 06:53N 26°06' W 080°10'0 0.0
2018-Jan-18 06:23N 26°06' W 080°10'0 0.0
2018-Jan-18 05:56N 26°06' W 080°10'0 0.0
2018-Jan-18 05:26N 26°06' W 080°10'0 0.0
2018-Jan-18 04:56N 26°06' W 080°10'0 0.0
2018-Jan-18 04:26N 26°06' W 080°10'0 0.0
2018-Jan-18 03:56N 26°06' W 080°10'0 0.0
2018-Jan-18 03:29N 26°06' W 080°10'0 0.0
2018-Jan-18 02:59N 26°06' W 080°10'0 0.0
2018-Jan-18 02:29N 26°06' W 080°10'0 0.0
2018-Jan-18 01:59N 26°06' W 080°10'0 0.0
2018-Jan-18 01:26N 26°06' W 080°10'0 0.0
2018-Jan-18 00:59N 26°06' W 080°10'0 0.0
2018-Jan-17 23:59N 26°06' W 080°10'0 0.0
2018-Jan-17 23:47N 26°06' W 080°10'  
2018-Jan-12 14:57N 25°45' W 080°08'0 0.0
2018-Jan-12 14:30N 25°45' W 080°08'0 0.0
2018-Jan-12 14:00N 25°45' W 080°08'0 0.0
2018-Jan-12 13:27N 25°45' W 080°08'0 0.0
2018-Jan-12 13:00N 25°45' W 080°08'0 0.0
2018-Jan-12 12:30N 25°45' W 080°08'0 0.0
2018-Jan-12 12:00N 25°45' W 080°08'0 0.0
2018-Jan-12 11:30N 25°45' W 080°08'0 0.0
2018-Jan-12 10:57N 25°45' W 080°08'0 0.0
2018-Jan-12 10:30N 25°45' W 080°08'0 0.0
2018-Jan-12 10:00N 25°45' W 080°08'0 0.0
2018-Jan-12 09:30N 25°45' W 080°08'0 0.0
2018-Jan-12 09:00N 25°45' W 080°08'0 0.0
2018-Jan-12 08:30N 25°45' W 080°08'0 0.0
2018-Jan-12 08:00N 25°45' W 080°08'0 0.0
2018-Jan-12 07:30N 25°45' W 080°08'0 0.0
2018-Jan-12 07:00N 25°45' W 080°08'0 0.0
2018-Jan-12 06:30N 25°45' W 080°08'0 0.0
2018-Jan-12 06:00N 25°45' W 080°08'0 0.0
2018-Jan-12 05:30N 25°45' W 080°08'0 0.0
2018-Jan-12 05:00N 25°45' W 080°08'0 0.0
2018-Jan-12 04:30N 25°45' W 080°08'0 0.0
2018-Jan-12 03:57N 25°45' W 080°08'0 0.0
2018-Jan-12 03:30N 25°45' W 080°08'0 0.0
2018-Jan-12 03:00N 25°45' W 080°08'0 0.0
2018-Jan-12 02:27N 25°45' W 080°08'0 0.0
2018-Jan-12 01:57N 25°45' W 080°08'0 0.0
2018-Jan-12 01:27N 25°45' W 080°08'0 0.0
2018-Jan-12 00:57N 25°45' W 080°08'0 0.0
2018-Jan-12 00:30N 25°45' W 080°08'0 0.0
2018-Jan-12 00:00N 25°45' W 080°08'0 0.0
2018-Jan-11 23:27N 25°45' W 080°08'0 0.0
2018-Jan-11 23:00N 25°45' W 080°08'0 0.0
2018-Jan-11 22:30N 25°45' W 080°08'1 1.1
2018-Jan-11 22:00N 25°46' W 080°08'5 9.6
2018-Jan-11 21:31N 25°50' W 080°05'815.2
2018-Jan-11 21:00N 25°58' W 080°05'815.4
2018-Jan-11 20:30N 26°05' W 080°05'2 4.1
2018-Jan-11 20:00N 26°07' W 080°07'2 2.2
2018-Jan-11 19:19N 26°08' W 080°07'0 0.0
2018-Jan-11 18:49N 26°08' W 080°07'0 0.0
2018-Jan-11 18:19N 26°08' W 080°07'0 0.0
2018-Jan-11 17:52N 26°08' W 080°07'0 0.0
2018-Jan-11 17:19N 26°08' W 080°07'0 0.0
2018-Jan-11 16:19N 26°08' W 080°07'0 0.0
2018-Jan-11 15:52N 26°08' W 080°07'0 0.0
2018-Jan-11 15:25N 26°08' W 080°07'0 0.0
2018-Jan-11 14:55N 26°08' W 080°07'0 0.0
2018-Jan-11 14:25N 26°08' W 080°07'0 0.0
2018-Jan-11 13:40N 26°08' W 080°07'0 0.0
2018-Jan-11 13:25N 26°08' W 080°07'0 0.0
2018-Jan-11 12:52N 26°08' W 080°07'0 0.0
2018-Jan-11 12:28N 26°08' W 080°07'0 0.0
2018-Jan-11 11:58N 26°08' W 080°07'0 0.0
2018-Jan-11 11:28N 26°08' W 080°07'0 0.0
2018-Jan-11 10:58N 26°08' W 080°07'0 0.0
2018-Jan-11 10:28N 26°08' W 080°07'0 0.0
2018-Jan-11 09:55N 26°08' W 080°07'0 0.0
2018-Jan-11 09:25N 26°08' W 080°07'0 0.0
2018-Jan-11 08:58N 26°08' W 080°07'0 0.0
2018-Jan-11 08:16N 26°08' W 080°07'0 0.0
2018-Jan-11 07:46N 26°08' W 080°07'0 0.0
2018-Jan-11 07:16N 26°08' W 080°07'0 0.0
2018-Jan-11 06:49N 26°08' W 080°07'0 0.0
2018-Jan-11 06:19N 26°08' W 080°07'0 0.0
2018-Jan-11 05:58N 26°08' W 080°07'0 0.0
2018-Jan-11 05:19N 26°08' W 080°07'0 0.0
2018-Jan-11 04:49N 26°08' W 080°07'0 0.0
2018-Jan-11 04:19N 26°08' W 080°07'0 0.0
2018-Jan-11 03:49N 26°08' W 080°07'0 0.0
2018-Jan-11 03:19N 26°08' W 080°07'0 0.0
2018-Jan-11 02:52N 26°08' W 080°07'0 0.0
2018-Jan-11 02:22N 26°08' W 080°07'0 0.0
2018-Jan-11 01:52N 26°08' W 080°07'0 0.0
2018-Jan-11 01:22N 26°08' W 080°07'0 0.0
2018-Jan-11 00:55N 26°08' W 080°07'0 0.0
2018-Jan-11 00:25N 26°08' W 080°07'0 0.0
2018-Jan-10 23:55N 26°08' W 080°07'0 0.0
2018-Jan-10 23:25N 26°08' W 080°07'0 0.0
2018-Jan-10 22:52N 26°08' W 080°07'0 0.0
2018-Jan-10 22:25N 26°08' W 080°07'0 0.0
2018-Jan-10 21:58N 26°08' W 080°07'0 0.0
2018-Jan-10 21:28N 26°08' W 080°07'0 0.0
2018-Jan-10 20:58N 26°08' W 080°07'0 0.0
2018-Jan-10 20:28N 26°08' W 080°07'0 0.0
2018-Jan-10 19:55N 26°08' W 080°07'0 0.0
2018-Jan-10 19:28N 26°08' W 080°07'0 0.0
2018-Jan-10 18:55N 26°08' W 080°07'0 0.0
2018-Jan-10 18:28N 26°08' W 080°07'0 0.0
2018-Jan-10 17:58N 26°08' W 080°07'0 0.0
2018-Jan-10 17:28N 26°08' W 080°07'0 0.0
2018-Jan-10 16:58N 26°08' W 080°07'0 0.0
2018-Jan-10 16:28N 26°08' W 080°07'0 0.0
2018-Jan-10 15:58N 26°08' W 080°07'0 0.0
2018-Jan-10 15:28N 26°08' W 080°07'0 0.0
2018-Jan-10 14:49N 26°08' W 080°07'0 0.0
2018-Jan-10 14:19N 26°08' W 080°07'0 0.0
2018-Jan-10 13:52N 26°08' W 080°07'0 0.0
2018-Jan-10 13:22N 26°08' W 080°07'0 0.0
2018-Jan-10 12:49N 26°08' W 080°07'0 0.0
2018-Jan-10 12:04N 26°08' W 080°07'0 0.0
2018-Jan-10 11:52N 26°08' W 080°07'0 0.0
2018-Jan-10 11:19N 26°08' W 080°07'0 0.0
2018-Jan-10 10:55N 26°08' W 080°07'0 0.0
2018-Jan-10 10:25N 26°08' W 080°07'0 0.0
2018-Jan-10 09:55N 26°08' W 080°07'0 0.0
2018-Jan-10 09:25N 26°08' W 080°07'0 0.0
2018-Jan-10 08:55N 26°08' W 080°07'0 0.0
2018-Jan-10 08:25N 26°08' W 080°07'0 0.0
2018-Jan-10 07:58N 26°08' W 080°07'0 0.0
2018-Jan-10 07:28N 26°08' W 080°07'0 0.0
2018-Jan-10 06:58N 26°08' W 080°07'0 0.0
2018-Jan-10 06:28N 26°08' W 080°07'0 0.0
2018-Jan-10 05:58N 26°08' W 080°07'0 0.0
2018-Jan-10 05:28N 26°08' W 080°07'0 0.0
2018-Jan-10 04:46N 26°08' W 080°07'0 0.0
2018-Jan-10 04:28N 26°08' W 080°07'0 0.0
2018-Jan-10 03:46N 26°08' W 080°07'0 0.0
2018-Jan-10 03:28N 26°08' W 080°07'0 0.0
2018-Jan-10 02:58N 26°08' W 080°07'0 0.0
2018-Jan-10 02:28N 26°08' W 080°07'0 0.0
2018-Jan-10 01:58N 26°08' W 080°07'0 0.0
2018-Jan-10 01:28N 26°08' W 080°07'0 0.0
2018-Jan-10 00:49N 26°08' W 080°07'0 0.0
2018-Jan-10 00:19N 26°08' W 080°07'0 0.0
2018-Jan-09 23:49N 26°08' W 080°07'0 0.0
2018-Jan-09 23:22N 26°08' W 080°07'0 0.0
2018-Jan-09 22:52N 26°08' W 080°07'0 0.0
2018-Jan-09 22:19N 26°08' W 080°07'0 0.0
2018-Jan-09 21:52N 26°08' W 080°07'0 0.0
2018-Jan-09 21:22N 26°08' W 080°07'0 0.0
2018-Jan-09 20:55N 26°08' W 080°07'0 0.0
2018-Jan-09 20:25N 26°08' W 080°07'0 0.0
2018-Jan-09 19:55N 26°08' W 080°07'0 0.0
2018-Jan-09 19:25N 26°08' W 080°07'0 0.0
2018-Jan-09 18:52N 26°08' W 080°07'0 0.0
2018-Jan-09 18:25N 26°08' W 080°07'0 0.0
2018-Jan-09 17:55N 26°08' W 080°07'0 0.0
2018-Jan-09 17:28N 26°08' W 080°07'0 0.0
2018-Jan-09 16:58N 26°08' W 080°07'0 0.0
2018-Jan-09 16:28N 26°08' W 080°07'0 0.0
2018-Jan-09 15:58N 26°08' W 080°07'0 0.0
2018-Jan-09 15:28N 26°08' W 080°07'0 0.0
2018-Jan-09 14:58N 26°08' W 080°07'0 0.0
2018-Jan-09 14:28N 26°08' W 080°07'0 0.0
2018-Jan-09 13:58N 26°08' W 080°07'0 0.0
2018-Jan-09 13:28N 26°08' W 080°07'0 0.0
2018-Jan-09 12:58N 26°08' W 080°07'0 0.0
2018-Jan-09 12:19N 26°08' W 080°07'0 0.0
2018-Jan-09 11:58N 26°08' W 080°07'0 0.0
2018-Jan-09 11:28N 26°08' W 080°07'0 0.0
2018-Jan-09 10:49N 26°08' W 080°07'0 0.0
2018-Jan-09 10:19N 26°08' W 080°07'0 0.0
2018-Jan-09 09:49N 26°08' W 080°07'0 0.0
2018-Jan-09 09:22N 26°08' W 080°07'0 0.0
2018-Jan-09 08:52N 26°08' W 080°07'0 0.0
2018-Jan-09 08:22N 26°08' W 080°07'0 0.0
2018-Jan-09 07:52N 26°08' W 080°07'0 0.0
2018-Jan-09 07:22N 26°08' W 080°07'0 0.0
2018-Jan-09 06:49N 26°08' W 080°07'0 0.0
2018-Jan-09 06:25N 26°08' W 080°07'0 0.0
2018-Jan-09 05:49N 26°08' W 080°07'0 0.0
2018-Jan-09 05:25N 26°08' W 080°07'0 0.0
2018-Jan-09 04:55N 26°08' W 080°07'0 0.0
2018-Jan-09 04:25N 26°08' W 080°07'0 0.0
2018-Jan-09 03:58N 26°08' W 080°07'0 0.0
2018-Jan-09 03:25N 26°08' W 080°07'0 0.0
2018-Jan-09 02:58N 26°08' W 080°07'0 0.0
2018-Jan-09 02:28N 26°08' W 080°07'0 0.0
2018-Jan-09 01:43N 26°08' W 080°07'0 0.0
2018-Jan-09 01:10N 26°08' W 080°07'0 0.0
2018-Jan-09 00:58N 26°08' W 080°07'0 0.0
2018-Jan-09 00:28N 26°08' W 080°07'0 0.0
2018-Jan-08 23:58N 26°08' W 080°07'0 0.0
2018-Jan-08 23:28N 26°08' W 080°07'0 0.0
2018-Jan-08 22:58N 26°08' W 080°07'0 0.0
2018-Jan-08 22:28N 26°08' W 080°07'0 0.0
2018-Jan-08 21:58N 26°08' W 080°07'0 0.0
2018-Jan-08 21:28N 26°08' W 080°07'0 0.0
2018-Jan-08 20:46N 26°08' W 080°07'0 0.0
2018-Jan-08 20:16N 26°08' W 080°07'0 0.0
2018-Jan-08 19:49N 26°08' W 080°07'0 0.0
2018-Jan-08 19:22N 26°08' W 080°07'0 0.0
2018-Jan-08 18:52N 26°08' W 080°07'0 0.0
2018-Jan-08 18:22N 26°08' W 080°07'0 0.0
2018-Jan-08 17:34N 26°08' W 080°07'  
Track history (hours):
 
Tides and Currents Weather Stations Pressure Air Temp Water Temp Dewpoint Dewpoint Depression Visibility Wind Speed Wind Dir Waves Ship Positions

MiSS Sydney

Last reported at 2018-Jan-18 17:25 UTC. Time now 2018-Jan-18 17:57 UTC.
Position N 26°08' W 080°07'.

Length 39 m; draft 2.1 m.

Type: . MMSI: 538070521.

Date/timePositionNaut miles runAvg speedWind from/ knotsBaromVisibWave heightAir tempDewpointWater temp
2018-Jan-18 17:25N 26°08' W 080°07'0 0.0
2018-Jan-18 16:55N 26°08' W 080°07'0 0.0
2018-Jan-18 16:25N 26°08' W 080°07'0 0.0
2018-Jan-18 15:55N 26°08' W 080°07'0 0.1
2018-Jan-18 15:30N 26°08' W 080°07'1 2.4
2018-Jan-18 15:00N 26°07' W 080°08'1 2.7
2018-Jan-18 14:30N 26°07' W 080°09'1 2.4
2018-Jan-18 13:59N 26°06' W 080°10'0 0.0
2018-Jan-18 13:29N 26°06' W 080°10'0 0.0
2018-Jan-18 12:59N 26°06' W 080°10'0 0.0
2018-Jan-18 12:29N 26°06' W 080°10'0 0.0
2018-Jan-18 11:59N 26°06' W 080°10'0 0.0
2018-Jan-18 11:29N 26°06' W 080°10'0 0.0
2018-Jan-18 10:59N 26°06' W 080°10'0 0.0
2018-Jan-18 10:20N 26°06' W 080°10'0 0.0
2018-Jan-18 09:50N 26°06' W 080°10'0 0.0
2018-Jan-18 09:20N 26°06' W 080°10'0 0.0
2018-Jan-18 08:53N 26°06' W 080°10'0 0.0
2018-Jan-18 08:23N 26°06' W 080°10'0 0.0
2018-Jan-18 07:53N 26°06' W 080°10'0 0.0
2018-Jan-18 07:23N 26°06' W 080°10'0 0.0
2018-Jan-18 06:53N 26°06' W 080°10'0 0.0
2018-Jan-18 06:23N 26°06' W 080°10'0 0.0
2018-Jan-18 05:56N 26°06' W 080°10'0 0.0
2018-Jan-18 05:26N 26°06' W 080°10'0 0.0
2018-Jan-18 04:56N 26°06' W 080°10'0 0.0
2018-Jan-18 04:26N 26°06' W 080°10'0 0.0
2018-Jan-18 03:56N 26°06' W 080°10'0 0.0
2018-Jan-18 03:29N 26°06' W 080°10'0 0.0
2018-Jan-18 02:59N 26°06' W 080°10'0 0.0
2018-Jan-18 02:29N 26°06' W 080°10'0 0.0
2018-Jan-18 01:59N 26°06' W 080°10'0 0.0
2018-Jan-18 01:26N 26°06' W 080°10'0 0.0
2018-Jan-18 00:59N 26°06' W 080°10'0 0.0
2018-Jan-17 23:59N 26°06' W 080°10'0 0.0
2018-Jan-17 23:47N 26°06' W 080°10'  
2018-Jan-12 14:57N 25°45' W 080°08'0 0.0
2018-Jan-12 14:30N 25°45' W 080°08'0 0.0
2018-Jan-12 14:00N 25°45' W 080°08'0 0.0
2018-Jan-12 13:27N 25°45' W 080°08'0 0.0
2018-Jan-12 13:00N 25°45' W 080°08'0 0.0
2018-Jan-12 12:30N 25°45' W 080°08'0 0.0
2018-Jan-12 12:00N 25°45' W 080°08'0 0.0
2018-Jan-12 11:30N 25°45' W 080°08'0 0.0
2018-Jan-12 10:57N 25°45' W 080°08'0 0.0
2018-Jan-12 10:30N 25°45' W 080°08'0 0.0
2018-Jan-12 10:00N 25°45' W 080°08'0 0.0
2018-Jan-12 09:30N 25°45' W 080°08'0 0.0
2018-Jan-12 09:00N 25°45' W 080°08'0 0.0
2018-Jan-12 08:30N 25°45' W 080°08'0 0.0
2018-Jan-12 08:00N 25°45' W 080°08'0 0.0
2018-Jan-12 07:30N 25°45' W 080°08'0 0.0
2018-Jan-12 07:00N 25°45' W 080°08'0 0.0
2018-Jan-12 06:30N 25°45' W 080°08'0 0.0
2018-Jan-12 06:00N 25°45' W 080°08'0 0.0
2018-Jan-12 05:30N 25°45' W 080°08'0 0.0
2018-Jan-12 05:00N 25°45' W 080°08'0 0.0
2018-Jan-12 04:30N 25°45' W 080°08'0 0.0
2018-Jan-12 03:57N 25°45' W 080°08'0 0.0
2018-Jan-12 03:30N 25°45' W 080°08'0 0.0
2018-Jan-12 03:00N 25°45' W 080°08'0 0.0
2018-Jan-12 02:27N 25°45' W 080°08'0 0.0
2018-Jan-12 01:57N 25°45' W 080°08'0 0.0
2018-Jan-12 01:27N 25°45' W 080°08'0 0.0
2018-Jan-12 00:57N 25°45' W 080°08'0 0.0
2018-Jan-12 00:30N 25°45' W 080°08'0 0.0
2018-Jan-12 00:00N 25°45' W 080°08'0 0.0
2018-Jan-11 23:27N 25°45' W 080°08'0 0.0
2018-Jan-11 23:00N 25°45' W 080°08'0 0.0
2018-Jan-11 22:30N 25°45' W 080°08'1 1.1
2018-Jan-11 22:00N 25°46' W 080°08'5 9.6
2018-Jan-11 21:31N 25°50' W 080°05'815.2
2018-Jan-11 21:00N 25°58' W 080°05'815.4
2018-Jan-11 20:30N 26°05' W 080°05'2 4.1
2018-Jan-11 20:00N 26°07' W 080°07'2 2.2
2018-Jan-11 19:19N 26°08' W 080°07'0 0.0
2018-Jan-11 18:49N 26°08' W 080°07'0 0.0
2018-Jan-11 18:19N 26°08' W 080°07'0 0.0
2018-Jan-11 17:52N 26°08' W 080°07'0 0.0
2018-Jan-11 17:19N 26°08' W 080°07'0 0.0
2018-Jan-11 16:19N 26°08' W 080°07'0 0.0
2018-Jan-11 15:52N 26°08' W 080°07'0 0.0
2018-Jan-11 15:25N 26°08' W 080°07'0 0.0
2018-Jan-11 14:55N 26°08' W 080°07'0 0.0
2018-Jan-11 14:25N 26°08' W 080°07'0 0.0
2018-Jan-11 13:40N 26°08' W 080°07'0 0.0
2018-Jan-11 13:25N 26°08' W 080°07'0 0.0
2018-Jan-11 12:52N 26°08' W 080°07'0 0.0
2018-Jan-11 12:28N 26°08' W 080°07'0 0.0
2018-Jan-11 11:58N 26°08' W 080°07'0 0.0
2018-Jan-11 11:28N 26°08' W 080°07'0 0.0
2018-Jan-11 10:58N 26°08' W 080°07'0 0.0
2018-Jan-11 10:28N 26°08' W 080°07'0 0.0
2018-Jan-11 09:55N 26°08' W 080°07'0 0.0
2018-Jan-11 09:25N 26°08' W 080°07'0 0.0
2018-Jan-11 08:58N 26°08' W 080°07'0 0.0
2018-Jan-11 08:16N 26°08' W 080°07'0 0.0
2018-Jan-11 07:46N 26°08' W 080°07'0 0.0
2018-Jan-11 07:16N 26°08' W 080°07'0 0.0
2018-Jan-11 06:49N 26°08' W 080°07'0 0.0
2018-Jan-11 06:19N 26°08' W 080°07'0 0.0
2018-Jan-11 05:58N 26°08' W 080°07'0 0.0
2018-Jan-11 05:19N 26°08' W 080°07'0 0.0
2018-Jan-11 04:49N 26°08' W 080°07'0 0.0
2018-Jan-11 04:19N 26°08' W 080°07'0 0.0
2018-Jan-11 03:49N 26°08' W 080°07'0 0.0
2018-Jan-11 03:19N 26°08' W 080°07'0 0.0
2018-Jan-11 02:52N 26°08' W 080°07'0 0.0
2018-Jan-11 02:22N 26°08' W 080°07'0 0.0
2018-Jan-11 01:52N 26°08' W 080°07'0 0.0
2018-Jan-11 01:22N 26°08' W 080°07'0 0.0
2018-Jan-11 00:55N 26°08' W 080°07'0 0.0
2018-Jan-11 00:25N 26°08' W 080°07'0 0.0
2018-Jan-10 23:55N 26°08' W 080°07'0 0.0
2018-Jan-10 23:25N 26°08' W 080°07'0 0.0
2018-Jan-10 22:52N 26°08' W 080°07'0 0.0
2018-Jan-10 22:25N 26°08' W 080°07'0 0.0
2018-Jan-10 21:58N 26°08' W 080°07'0 0.0
2018-Jan-10 21:28N 26°08' W 080°07'0 0.0
2018-Jan-10 20:58N 26°08' W 080°07'0 0.0
2018-Jan-10 20:28N 26°08' W 080°07'0 0.0
2018-Jan-10 19:55N 26°08' W 080°07'0 0.0
2018-Jan-10 19:28N 26°08' W 080°07'0 0.0
2018-Jan-10 18:55N 26°08' W 080°07'0 0.0
2018-Jan-10 18:28N 26°08' W 080°07'0 0.0
2018-Jan-10 17:58N 26°08' W 080°07'0 0.0
2018-Jan-10 17:28N 26°08' W 080°07'0 0.0
2018-Jan-10 16:58N 26°08' W 080°07'0 0.0
2018-Jan-10 16:28N 26°08' W 080°07'0 0.0
2018-Jan-10 15:58N 26°08' W 080°07'0 0.0
2018-Jan-10 15:28N 26°08' W 080°07'0 0.0
2018-Jan-10 14:49N 26°08' W 080°07'0 0.0
2018-Jan-10 14:19N 26°08' W 080°07'0 0.0
2018-Jan-10 13:52N 26°08' W 080°07'0 0.0
2018-Jan-10 13:22N 26°08' W 080°07'0 0.0
2018-Jan-10 12:49N 26°08' W 080°07'0 0.0
2018-Jan-10 12:04N 26°08' W 080°07'0 0.0
2018-Jan-10 11:52N 26°08' W 080°07'0 0.0
2018-Jan-10 11:19N 26°08' W 080°07'0 0.0
2018-Jan-10 10:55N 26°08' W 080°07'0 0.0
2018-Jan-10 10:25N 26°08' W 080°07'0 0.0
2018-Jan-10 09:55N 26°08' W 080°07'0 0.0
2018-Jan-10 09:25N 26°08' W 080°07'0 0.0
2018-Jan-10 08:55N 26°08' W 080°07'0 0.0
2018-Jan-10 08:25N 26°08' W 080°07'0 0.0
2018-Jan-10 07:58N 26°08' W 080°07'0 0.0
2018-Jan-10 07:28N 26°08' W 080°07'0 0.0
2018-Jan-10 06:58N 26°08' W 080°07'0 0.0
2018-Jan-10 06:28N 26°08' W 080°07'0 0.0
2018-Jan-10 05:58N 26°08' W 080°07'0 0.0
2018-Jan-10 05:28N 26°08' W 080°07'0 0.0
2018-Jan-10 04:46N 26°08' W 080°07'0 0.0
2018-Jan-10 04:28N 26°08' W 080°07'0 0.0
2018-Jan-10 03:46N 26°08' W 080°07'0 0.0
2018-Jan-10 03:28N 26°08' W 080°07'0 0.0
2018-Jan-10 02:58N 26°08' W 080°07'0 0.0
2018-Jan-10 02:28N 26°08' W 080°07'0 0.0
2018-Jan-10 01:58N 26°08' W 080°07'0 0.0
2018-Jan-10 01:28N 26°08' W 080°07'0 0.0
2018-Jan-10 00:49N 26°08' W 080°07'0 0.0
2018-Jan-10 00:19N 26°08' W 080°07'0 0.0
2018-Jan-09 23:49N 26°08' W 080°07'0 0.0
2018-Jan-09 23:22N 26°08' W 080°07'0 0.0
2018-Jan-09 22:52N 26°08' W 080°07'0 0.0
2018-Jan-09 22:19N 26°08' W 080°07'0 0.0
2018-Jan-09 21:52N 26°08' W 080°07'0 0.0
2018-Jan-09 21:22N 26°08' W 080°07'0 0.0
2018-Jan-09 20:55N 26°08' W 080°07'0 0.0
2018-Jan-09 20:25N 26°08' W 080°07'0 0.0
2018-Jan-09 19:55N 26°08' W 080°07'0 0.0
2018-Jan-09 19:25N 26°08' W 080°07'0 0.0
2018-Jan-09 18:52N 26°08' W 080°07'0 0.0
2018-Jan-09 18:25N 26°08' W 080°07'0 0.0
2018-Jan-09 17:55N 26°08' W 080°07'0 0.0
2018-Jan-09 17:28N 26°08' W 080°07'0 0.0
2018-Jan-09 16:58N 26°08' W 080°07'0 0.0
2018-Jan-09 16:28N 26°08' W 080°07'0 0.0
2018-Jan-09 15:58N 26°08' W 080°07'0 0.0
2018-Jan-09 15:28N 26°08' W 080°07'0 0.0
2018-Jan-09 14:58N 26°08' W 080°07'0 0.0
2018-Jan-09 14:28N 26°08' W 080°07'0 0.0
2018-Jan-09 13:58N 26°08' W 080°07'0 0.0
2018-Jan-09 13:28N 26°08' W 080°07'0 0.0
2018-Jan-09 12:58N 26°08' W 080°07'0 0.0
2018-Jan-09 12:19N 26°08' W 080°07'0 0.0
2018-Jan-09 11:58N 26°08' W 080°07'0 0.0
2018-Jan-09 11:28N 26°08' W 080°07'0 0.0
2018-Jan-09 10:49N 26°08' W 080°07'0 0.0
2018-Jan-09 10:19N 26°08' W 080°07'0 0.0
2018-Jan-09 09:49N 26°08' W 080°07'0 0.0
2018-Jan-09 09:22N 26°08' W 080°07'0 0.0
2018-Jan-09 08:52N 26°08' W 080°07'0 0.0
2018-Jan-09 08:22N 26°08' W 080°07'0 0.0
2018-Jan-09 07:52N 26°08' W 080°07'0 0.0
2018-Jan-09 07:22N 26°08' W 080°07'0 0.0
2018-Jan-09 06:49N 26°08' W 080°07'0 0.0
2018-Jan-09 06:25N 26°08' W 080°07'0 0.0
2018-Jan-09 05:49N 26°08' W 080°07'0 0.0
2018-Jan-09 05:25N 26°08' W 080°07'0 0.0
2018-Jan-09 04:55N 26°08' W 080°07'0 0.0
2018-Jan-09 04:25N 26°08' W 080°07'0 0.0
2018-Jan-09 03:58N 26°08' W 080°07'0 0.0
2018-Jan-09 03:25N 26°08' W 080°07'0 0.0
2018-Jan-09 02:58N 26°08' W 080°07'0 0.0
2018-Jan-09 02:28N 26°08' W 080°07'0 0.0
2018-Jan-09 01:43N 26°08' W 080°07'0 0.0
2018-Jan-09 01:10N 26°08' W 080°07'0 0.0
2018-Jan-09 00:58N 26°08' W 080°07'0 0.0
2018-Jan-09 00:28N 26°08' W 080°07'0 0.0
2018-Jan-08 23:58N 26°08' W 080°07'0 0.0
2018-Jan-08 23:28N 26°08' W 080°07'0 0.0
2018-Jan-08 22:58N 26°08' W 080°07'0 0.0
2018-Jan-08 22:28N 26°08' W 080°07'0 0.0
2018-Jan-08 21:58N 26°08' W 080°07'0 0.0
2018-Jan-08 21:28N 26°08' W 080°07'0 0.0
2018-Jan-08 20:46N 26°08' W 080°07'0 0.0
2018-Jan-08 20:16N 26°08' W 080°07'0 0.0
2018-Jan-08 19:49N 26°08' W 080°07'0 0.0
2018-Jan-08 19:22N 26°08' W 080°07'0 0.0
2018-Jan-08 18:52N 26°08' W 080°07'0 0.0
2018-Jan-08 18:22N 26°08' W 080°07'0 0.0
2018-Jan-08 17:34N 26°08' W 080°07'  

Dump ship's entire track history